首页
METAR-TAF:

METAR-TAF

机场 :

安德鲁斯空军基地

Camp Springs, 马里兰州, 美国

纬度: 38-49N, 经度: 076-51W, 海拔: 86米

当前天气观测

该预报发布于46分钟前的17:56 UTC
风速8节,风向西转西南
温度 32°C
湿度 36%
气压 1018 hPa
能見度: 16.1公里
少量云层高于15000英尺
少量云层高于18000英尺

METAR: KADW 261756Z AUTO 25008KT 10SM FEW150 FEW180 32/15 A3006 RMK AO2 SLP183 T03160147 10316 20250 57012 $

时间: 14:42 (18:42 UTC)

预报

该预报发布于1小时和42分钟前的17:00 UTC
预报有效从26日的 17点(UTC)到 27日的 23点(UTC)
风速9节,风向西转西北
能见度10公里或以上
少量云层高于15000英尺
散云层高于25000英尺
成为
从 26日的 20点(UTC)到 26日的 21点(UTC)
风速6节,风向多变
能见度10公里或以上
天空无云

TAF: KADW 261700Z 2617/2723 30009KT 9999 FEW150 SCT250 QNH3003INS BECMG 2620/2621 VRB06KT 9999 SKC QNH3008INS TX32/2717Z TN24/2708Z

超过4000个机场的气象观测和天气预报(METAR&TAF报告)。

可查询的气象台以黄色和红色小点在地图上表示。

将鼠标移到小点上方,可查看气象台名称。

然后点击查看天气观测和预报。

如需切换地图:点击带黑十字的绿色按钮放大地图;点击带横线的绿色按钮缩小地图;或者点击绿色箭头查看邻近地区的地图。


METAR-TAF: